createdAt,value
2018-03-07T00:00:46.827Z,984.05
2018-03-07T00:01:46.771Z,984.04
2018-03-07T00:02:46.755Z,984.03
2018-03-07T00:03:46.720Z,984.01
2018-03-07T00:04:46.703Z,983.89
2018-03-07T00:05:46.630Z,983.99
2018-03-07T00:06:46.597Z,983.97
2018-03-07T00:07:46.566Z,983.99
2018-03-07T00:08:46.513Z,983.99
2018-03-07T00:09:46.475Z,983.96
2018-03-07T00:10:46.438Z,983.97
2018-03-07T00:11:46.416Z,983.94
2018-03-07T00:12:46.380Z,983.95
2018-03-07T00:13:46.331Z,983.95
2018-03-07T00:14:46.294Z,983.96
2018-03-07T00:15:46.243Z,983.96
2018-03-07T00:16:46.211Z,983.95
2018-03-07T00:17:46.173Z,984.01
2018-03-07T00:18:46.134Z,983.92
2018-03-07T00:19:46.130Z,983.97
2018-03-07T00:20:46.066Z,983.90
2018-03-07T00:21:46.022Z,984.00
2018-03-07T00:22:45.984Z,983.99
2018-03-07T00:23:45.949Z,984.01
2018-03-07T00:24:45.908Z,984.01
2018-03-07T00:25:45.870Z,984.05
2018-03-07T00:26:46.580Z,984.00
2018-03-07T00:27:46.577Z,983.88
2018-03-07T00:28:46.580Z,984.00
2018-03-07T00:29:45.738Z,984.01
2018-03-07T00:30:45.702Z,984.01
2018-03-07T00:31:45.661Z,984.04
2018-03-07T00:32:46.076Z,984.05
2018-03-07T00:33:45.584Z,984.00
2018-03-07T00:34:45.571Z,984.06
2018-03-07T00:35:45.506Z,984.04
2018-03-07T00:36:45.468Z,984.03
2018-03-07T00:37:45.434Z,984.01
2018-03-07T00:38:45.379Z,984.03
2018-03-07T00:39:45.342Z,984.01
2018-03-07T00:40:45.311Z,984.02
2018-03-07T00:41:45.264Z,984.01
2018-03-07T00:42:45.238Z,983.99
2018-03-07T00:43:45.186Z,984.00
2018-03-07T00:44:45.147Z,983.98
2018-03-07T00:45:45.126Z,983.98
2018-03-07T00:46:45.075Z,983.97
2018-03-07T00:47:45.035Z,984.04
2018-03-07T00:48:45.001Z,983.99
2018-03-07T00:49:44.954Z,984.03
2018-03-07T00:50:44.934Z,983.98
2018-03-07T00:51:44.881Z,983.94
2018-03-07T00:52:44.840Z,983.98
2018-03-07T00:53:44.820Z,983.97
2018-03-07T00:54:44.845Z,984.00
2018-03-07T00:55:44.732Z,983.96
2018-03-07T00:56:44.736Z,983.96
2018-03-07T00:57:44.659Z,984.00
2018-03-07T00:58:44.613Z,983.93
2018-03-07T00:59:44.577Z,984.01
2018-03-07T01:00:44.540Z,984.03
2018-03-07T01:01:44.521Z,984.03
2018-03-07T01:02:44.459Z,984.00
2018-03-07T01:03:44.426Z,983.99
2018-03-07T01:04:44.388Z,984.03
2018-03-07T01:05:44.366Z,984.03
2018-03-07T01:06:44.310Z,984.04
2018-03-07T01:07:44.270Z,984.03
2018-03-07T01:08:44.234Z,984.03
2018-03-07T01:09:44.203Z,984.02
2018-03-07T01:10:44.149Z,984.06
2018-03-07T01:11:44.116Z,984.01
2018-03-07T01:12:44.102Z,984.03
2018-03-07T01:13:44.052Z,983.89
2018-03-07T01:14:44.026Z,984.01
2018-03-07T01:15:43.974Z,984.01
2018-03-07T01:16:43.927Z,984.03
2018-03-07T01:17:43.910Z,984.01
2018-03-07T01:18:43.840Z,984.01
2018-03-07T01:19:43.811Z,984.00
2018-03-07T01:20:43.803Z,984.04
2018-03-07T01:21:43.730Z,984.05
2018-03-07T01:22:43.724Z,984.03
2018-03-07T01:23:43.651Z,984.07
2018-03-07T01:24:43.668Z,984.10
2018-03-07T01:25:43.586Z,983.95
2018-03-07T01:26:43.540Z,984.07
2018-03-07T01:27:43.508Z,984.04
2018-03-07T01:28:43.484Z,984.03
2018-03-07T01:29:43.446Z,983.97
2018-03-07T01:30:43.396Z,984.04
2018-03-07T01:31:43.351Z,984.04
2018-03-07T01:32:43.308Z,984.05
2018-03-07T01:33:43.279Z,984.06
2018-03-07T01:34:43.250Z,984.02
2018-03-07T01:35:43.193Z,984.04
2018-03-07T01:36:43.163Z,984.04
2018-03-07T01:37:43.161Z,984.03
2018-03-07T01:38:43.097Z,984.00
2018-03-07T01:39:43.065Z,984.05
2018-03-07T01:40:43.026Z,983.97
2018-03-07T01:41:42.968Z,984.02
2018-03-07T01:42:42.954Z,983.99
2018-03-07T01:43:42.897Z,983.99
2018-03-07T01:44:42.850Z,983.97
2018-03-07T01:45:42.847Z,983.96
2018-03-07T01:46:42.782Z,983.94
2018-03-07T01:47:42.775Z,983.90
2018-03-07T01:48:42.739Z,983.88
2018-03-07T01:49:42.652Z,983.92
2018-03-07T01:50:42.621Z,983.93
2018-03-07T01:51:42.579Z,983.90
2018-03-07T01:52:42.596Z,983.93
2018-03-07T01:53:42.518Z,983.85
2018-03-07T01:54:42.486Z,983.92
2018-03-07T01:55:42.419Z,983.89
2018-03-07T01:56:42.413Z,983.84
2018-03-07T01:57:42.345Z,983.90
2018-03-07T01:58:42.306Z,983.88
2018-03-07T01:59:42.266Z,983.92
2018-03-07T02:00:42.226Z,983.94
2018-03-07T02:01:42.188Z,983.88
2018-03-07T02:02:42.197Z,983.84
2018-03-07T02:03:42.126Z,983.92
2018-03-07T02:04:42.130Z,983.91
2018-03-07T02:05:42.040Z,983.90
2018-03-07T02:06:42.023Z,983.84
2018-03-07T02:07:41.960Z,983.90
2018-03-07T02:08:41.909Z,983.85
2018-03-07T02:09:41.887Z,983.84
2018-03-07T02:10:41.877Z,983.86
2018-03-07T02:11:41.832Z,983.80
2018-03-07T02:12:41.764Z,983.84
2018-03-07T02:13:41.720Z,983.81
2018-03-07T02:14:41.680Z,983.85
2018-03-07T02:15:41.635Z,983.81
2018-03-07T02:16:41.611Z,983.73
2018-03-07T02:17:41.555Z,983.69
2018-03-07T02:18:41.557Z,983.83
2018-03-07T02:19:41.486Z,983.77
2018-03-07T02:20:41.462Z,983.82
2018-03-07T02:21:41.428Z,983.79
2018-03-07T02:22:41.375Z,983.80
2018-03-07T02:23:41.345Z,983.80
2018-03-07T02:24:41.290Z,983.83
2018-03-07T02:25:41.257Z,983.72
2018-03-07T02:26:41.238Z,983.83
2018-03-07T02:27:41.173Z,983.81
2018-03-07T02:28:41.163Z,983.76
2018-03-07T02:29:41.115Z,983.79
2018-03-07T02:30:41.053Z,983.81
2018-03-07T02:31:41.014Z,983.82
2018-03-07T02:32:41.046Z,983.70
2018-03-07T02:33:40.955Z,983.74
2018-03-07T02:34:40.934Z,983.85
2018-03-07T02:35:40.862Z,983.74
2018-03-07T02:36:40.854Z,983.74
2018-03-07T02:37:40.795Z,983.76
2018-03-07T02:38:40.734Z,983.73
2018-03-07T02:39:40.722Z,983.80
2018-03-07T02:40:40.659Z,983.77
2018-03-07T02:41:40.616Z,983.79
2018-03-07T02:42:40.597Z,983.75
2018-03-07T02:43:40.540Z,983.77
2018-03-07T02:44:40.501Z,983.76
2018-03-07T02:45:40.479Z,983.67
2018-03-07T02:46:40.419Z,983.74
2018-03-07T02:47:40.404Z,983.65
2018-03-07T02:48:40.354Z,983.74
2018-03-07T02:49:40.308Z,983.78
2018-03-07T02:50:40.282Z,983.75
2018-03-07T02:51:40.238Z,983.70
2018-03-07T02:52:40.199Z,983.77
2018-03-07T02:53:40.145Z,983.74
2018-03-07T02:54:40.161Z,983.74
2018-03-07T02:55:40.060Z,983.74
2018-03-07T02:56:40.037Z,983.75
2018-03-07T02:57:39.989Z,983.79
2018-03-07T02:58:39.989Z,983.70
2018-03-07T02:59:39.928Z,983.73
2018-03-07T03:00:39.883Z,983.69
2018-03-07T03:01:39.835Z,983.58
2018-03-07T03:02:39.807Z,983.72
2018-03-07T03:03:39.764Z,983.67
2018-03-07T03:04:39.735Z,983.68
2018-03-07T03:05:39.676Z,983.71
2018-03-07T03:06:39.633Z,983.66
2018-03-07T03:07:39.591Z,983.66
2018-03-07T03:08:39.556Z,983.60
2018-03-07T03:09:39.507Z,983.67
2018-03-07T03:10:39.471Z,983.68
2018-03-07T03:11:39.428Z,983.67
2018-03-07T03:12:39.401Z,983.63
2018-03-07T03:13:39.364Z,983.69
2018-03-07T03:14:39.311Z,983.65
2018-03-07T03:15:39.309Z,983.66
2018-03-07T03:16:39.245Z,983.63
2018-03-07T03:17:39.221Z,983.67
2018-03-07T03:18:39.153Z,983.68
2018-03-07T03:19:39.113Z,983.66
2018-03-07T03:20:39.100Z,983.70
2018-03-07T03:21:39.054Z,983.63
2018-03-07T03:22:38.992Z,983.65
2018-03-07T03:23:38.966Z,983.68
2018-03-07T03:24:38.914Z,983.66
2018-03-07T03:25:38.874Z,983.63
2018-03-07T03:26:38.846Z,983.63
2018-03-07T03:27:38.793Z,983.68
2018-03-07T03:28:38.748Z,983.66
2018-03-07T03:29:38.722Z,983.62
2018-03-07T03:30:38.672Z,983.66
2018-03-07T03:31:38.642Z,983.66
2018-03-07T03:32:38.609Z,983.66
2018-03-07T03:33:38.567Z,983.72
2018-03-07T03:34:38.516Z,983.71
2018-03-07T03:35:38.467Z,983.66
2018-03-07T03:36:38.431Z,983.70
2018-03-07T03:37:38.405Z,983.66
2018-03-07T03:38:38.363Z,983.64
2018-03-07T03:39:38.323Z,983.71
2018-03-07T03:40:38.286Z,983.71
2018-03-07T03:41:38.238Z,983.58
2018-03-07T03:42:38.206Z,983.67
2018-03-07T03:43:38.153Z,983.67
2018-03-07T03:44:38.113Z,983.63
2018-03-07T03:45:38.074Z,983.62
2018-03-07T03:46:38.055Z,983.60
2018-03-07T03:47:37.990Z,983.62
2018-03-07T03:48:37.960Z,983.59
2018-03-07T03:49:37.915Z,983.62
2018-03-07T03:50:37.884Z,983.63
2018-03-07T03:51:37.866Z,983.66
2018-03-07T03:52:37.791Z,983.66
2018-03-07T03:53:37.764Z,983.72
2018-03-07T03:54:37.701Z,983.68
2018-03-07T03:55:37.673Z,983.69
2018-03-07T03:56:37.628Z,983.77
2018-03-07T03:57:37.579Z,983.60
2018-03-07T03:58:37.543Z,983.73
2018-03-07T03:59:37.558Z,983.78
2018-03-07T04:00:37.470Z,983.77
2018-03-07T04:01:37.421Z,983.76
2018-03-07T04:02:37.426Z,983.76
2018-03-07T04:03:37.353Z,983.80
2018-03-07T04:04:37.312Z,983.79
2018-03-07T04:05:37.285Z,983.78
2018-03-07T04:06:37.255Z,983.76
2018-03-07T04:07:37.207Z,983.78
2018-03-07T04:08:37.158Z,983.75
2018-03-07T04:09:37.096Z,983.63
2018-03-07T04:10:37.079Z,983.73
2018-03-07T04:11:37.028Z,983.73
2018-03-07T04:12:36.974Z,983.73
2018-03-07T04:13:36.972Z,983.74
2018-03-07T04:14:36.899Z,983.67
2018-03-07T04:15:36.848Z,983.80
2018-03-07T04:16:36.816Z,983.82
2018-03-07T04:17:36.780Z,983.80
2018-03-07T04:18:36.730Z,983.83
2018-03-07T04:19:36.742Z,983.84
2018-03-07T04:20:36.651Z,983.86
2018-03-07T04:21:36.610Z,983.90
2018-03-07T04:22:37.076Z,983.84
2018-03-07T04:23:37.076Z,983.87
2018-03-07T04:24:37.149Z,983.89
2018-03-07T04:25:37.077Z,983.93
2018-03-07T04:26:36.445Z,983.92
2018-03-07T04:27:36.369Z,983.93
2018-03-07T04:28:36.340Z,984.02
2018-03-07T04:29:36.319Z,983.96
2018-03-07T04:30:36.252Z,984.06
2018-03-07T04:31:36.242Z,984.02
2018-03-07T04:32:36.194Z,984.02
2018-03-07T04:33:36.174Z,984.05
2018-03-07T04:34:36.072Z,984.02
2018-03-07T04:35:36.035Z,984.07
2018-03-07T04:36:36.003Z,984.04
2018-03-07T04:37:35.974Z,984.02
2018-03-07T04:38:35.947Z,984.06
2018-03-07T04:39:35.865Z,984.06
2018-03-07T04:40:35.824Z,984.04
2018-03-07T04:41:35.805Z,984.03
2018-03-07T04:42:35.748Z,984.09
2018-03-07T04:43:35.714Z,984.05
2018-03-07T04:44:35.661Z,984.06
2018-03-07T04:45:35.641Z,984.07
2018-03-07T04:46:35.608Z,984.06
2018-03-07T04:47:35.556Z,984.04
2018-03-07T04:48:35.501Z,983.91
2018-03-07T04:49:35.492Z,984.07
2018-03-07T04:50:35.422Z,984.04
2018-03-07T04:51:35.376Z,984.05
2018-03-07T04:52:35.361Z,984.01
2018-03-07T04:53:35.315Z,984.00
2018-03-07T04:54:35.280Z,984.04
2018-03-07T04:55:35.226Z,984.08
2018-03-07T04:56:35.221Z,983.99
2018-03-07T04:57:35.160Z,984.00
2018-03-07T04:58:35.137Z,984.08
2018-03-07T04:59:35.080Z,984.11
2018-03-07T05:00:35.091Z,984.09
2018-03-07T05:01:35.027Z,984.07
2018-03-07T05:02:35.061Z,984.06
2018-03-07T05:03:34.934Z,984.11
2018-03-07T05:04:34.865Z,984.13
2018-03-07T05:05:34.872Z,984.08
2018-03-07T05:06:34.798Z,984.12
2018-03-07T05:07:34.767Z,984.09
2018-03-07T05:08:34.747Z,984.07
2018-03-07T05:09:34.660Z,984.06
2018-03-07T05:10:34.685Z,984.01
2018-03-07T05:11:34.578Z,984.03
2018-03-07T05:12:34.553Z,983.97
2018-03-07T05:13:34.503Z,983.95
2018-03-07T05:14:34.462Z,984.00
2018-03-07T05:15:34.450Z,983.92
2018-03-07T05:16:34.461Z,983.93
2018-03-07T05:17:34.338Z,983.89
2018-03-07T05:18:34.349Z,983.88
2018-03-07T05:19:34.256Z,983.89
2018-03-07T05:20:34.268Z,983.85
2018-03-07T05:21:34.214Z,983.84
2018-03-07T05:22:34.159Z,983.75
2018-03-07T05:23:34.117Z,983.85
2018-03-07T05:24:34.076Z,983.79
2018-03-07T05:25:34.007Z,983.81
2018-03-07T05:26:33.989Z,983.88
2018-03-07T05:27:33.960Z,983.84
2018-03-07T05:28:33.909Z,983.74
2018-03-07T05:29:33.890Z,983.79
2018-03-07T05:30:33.815Z,983.75
2018-03-07T05:31:33.777Z,983.78
2018-03-07T05:32:33.750Z,983.76
2018-03-07T05:33:33.737Z,983.71
2018-03-07T05:34:33.654Z,983.67
2018-03-07T05:35:33.615Z,983.69
2018-03-07T05:36:33.574Z,983.76
2018-03-07T05:37:33.540Z,983.78
2018-03-07T05:38:33.493Z,983.83
2018-03-07T05:39:33.480Z,983.83
2018-03-07T05:40:33.414Z,983.93
2018-03-07T05:41:33.373Z,983.92
2018-03-07T05:42:33.334Z,983.91
2018-03-07T05:43:33.291Z,983.95
2018-03-07T05:44:33.247Z,983.88
2018-03-07T05:45:33.210Z,983.90
2018-03-07T05:46:33.165Z,983.83
2018-03-07T05:47:33.124Z,983.90
2018-03-07T05:48:33.083Z,983.88
2018-03-07T05:49:33.045Z,983.83
2018-03-07T05:50:33.004Z,983.77
2018-03-07T05:51:32.961Z,983.82
2018-03-07T05:52:32.926Z,983.84
2018-03-07T05:53:32.883Z,983.76
2018-03-07T05:54:32.842Z,983.85
2018-03-07T05:55:32.797Z,983.84
2018-03-07T05:56:32.760Z,983.79
2018-03-07T05:57:32.712Z,983.76
2018-03-07T05:58:32.681Z,983.74
2018-03-07T05:59:32.641Z,983.77
2018-03-07T06:00:32.593Z,983.77
2018-03-07T06:01:32.554Z,983.78
2018-03-07T06:02:32.510Z,983.81
2018-03-07T06:03:32.475Z,983.84
2018-03-07T06:04:32.432Z,983.82
2018-03-07T06:05:32.387Z,983.88
2018-03-07T06:06:32.352Z,983.79
2018-03-07T06:07:32.305Z,983.91
2018-03-07T06:08:32.270Z,983.86
2018-03-07T06:09:32.229Z,983.85
2018-03-07T06:10:32.192Z,983.90
2018-03-07T06:11:32.141Z,983.95
2018-03-07T06:12:32.107Z,983.90
2018-03-07T06:13:32.061Z,983.88
2018-03-07T06:14:32.018Z,983.90
2018-03-07T06:15:31.979Z,983.91
2018-03-07T06:16:31.937Z,983.95
2018-03-07T06:17:31.912Z,983.95
2018-03-07T06:18:31.858Z,983.93
2018-03-07T06:19:31.814Z,983.82
2018-03-07T06:20:31.773Z,983.92
2018-03-07T06:21:31.738Z,983.87
2018-03-07T06:22:31.691Z,983.92
2018-03-07T06:23:31.653Z,983.92
2018-03-07T06:24:31.616Z,983.94
2018-03-07T06:25:31.580Z,984.05
2018-03-07T06:26:31.528Z,984.07
2018-03-07T06:27:31.495Z,984.07
2018-03-07T06:28:31.447Z,984.14
2018-03-07T06:29:31.407Z,984.23
2018-03-07T06:30:31.371Z,984.25
2018-03-07T06:31:31.323Z,984.20
2018-03-07T06:32:31.284Z,984.25
2018-03-07T06:33:31.249Z,984.23
2018-03-07T06:34:31.208Z,984.26
2018-03-07T06:35:31.165Z,984.36
2018-03-07T06:36:31.124Z,984.34
2018-03-07T06:37:31.085Z,984.34
2018-03-07T06:38:31.042Z,984.36
2018-03-07T06:39:30.996Z,984.43
2018-03-07T06:40:30.960Z,984.43
2018-03-07T06:41:30.928Z,984.44
2018-03-07T06:42:30.886Z,984.47
2018-03-07T06:43:30.837Z,984.48
2018-03-07T06:44:30.795Z,984.50
2018-03-07T06:45:30.753Z,984.49
2018-03-07T06:46:30.724Z,984.47
2018-03-07T06:47:30.689Z,984.43
2018-03-07T06:48:30.640Z,984.45
2018-03-07T06:49:30.590Z,984.43
2018-03-07T06:50:30.549Z,984.39
2018-03-07T06:51:30.514Z,984.39
2018-03-07T06:52:30.469Z,984.33
2018-03-07T06:53:30.429Z,984.39
2018-03-07T06:54:30.383Z,984.44
2018-03-07T06:55:30.350Z,984.38
2018-03-07T06:56:30.312Z,984.42
2018-03-07T06:57:30.272Z,984.45
2018-03-07T06:58:30.341Z,984.52
2018-03-07T06:59:30.190Z,984.51
2018-03-07T07:00:30.153Z,984.56
2018-03-07T07:01:30.107Z,984.58
2018-03-07T07:02:30.093Z,984.64
2018-03-07T07:03:30.028Z,984.65
2018-03-07T07:04:29.984Z,984.62
2018-03-07T07:05:29.947Z,984.66
2018-03-07T07:06:29.912Z,984.64
2018-03-07T07:07:29.864Z,984.60
2018-03-07T07:08:29.825Z,984.70
2018-03-07T07:09:29.785Z,984.64
2018-03-07T07:10:29.748Z,984.66
2018-03-07T07:11:29.707Z,984.78
2018-03-07T07:12:29.668Z,984.77
2018-03-07T07:13:29.626Z,984.81
2018-03-07T07:14:29.590Z,984.83
2018-03-07T07:15:29.555Z,984.77
2018-03-07T07:16:29.515Z,984.78
2018-03-07T07:17:29.475Z,984.81
2018-03-07T07:18:29.433Z,984.68
2018-03-07T07:19:29.398Z,984.83
2018-03-07T07:20:29.362Z,984.83
2018-03-07T07:21:29.326Z,984.82
2018-03-07T07:22:29.280Z,984.83
2018-03-07T07:23:29.249Z,984.84
2018-03-07T07:24:29.218Z,984.81
2018-03-07T07:25:29.166Z,984.83
2018-03-07T07:26:29.135Z,984.80
2018-03-07T07:27:29.092Z,984.82
2018-03-07T07:28:29.053Z,984.83
2018-03-07T07:29:29.015Z,984.77
2018-03-07T07:30:28.980Z,984.76
2018-03-07T07:31:28.958Z,984.82
2018-03-07T07:32:28.911Z,984.79
2018-03-07T07:33:28.866Z,984.77
2018-03-07T07:34:28.834Z,984.80
2018-03-07T07:35:28.790Z,984.78
2018-03-07T07:36:28.751Z,984.82
2018-03-07T07:37:28.736Z,984.80
2018-03-07T07:38:28.681Z,984.84
2018-03-07T07:39:28.645Z,984.88
2018-03-07T07:40:28.604Z,984.82
2018-03-07T07:41:28.559Z,984.81
2018-03-07T07:42:28.527Z,984.88
2018-03-07T07:43:28.533Z,984.88
2018-03-07T07:44:28.439Z,984.82
2018-03-07T07:45:28.415Z,984.85
2018-03-07T07:46:28.365Z,984.91
2018-03-07T07:47:28.330Z,984.96
2018-03-07T07:48:28.298Z,984.95
2018-03-07T07:49:28.258Z,984.98
2018-03-07T07:50:28.222Z,985.03
2018-03-07T07:51:28.185Z,985.02
2018-03-07T07:52:28.146Z,985.02
2018-03-07T07:53:28.114Z,985.00
2018-03-07T07:54:28.108Z,984.92
2018-03-07T07:55:28.032Z,984.92
2018-03-07T07:56:28.002Z,984.89
2018-03-07T07:57:27.959Z,984.94
2018-03-07T07:58:27.922Z,984.94
2018-03-07T07:59:27.894Z,984.98
2018-03-07T08:00:27.853Z,985.00
2018-03-07T08:01:27.815Z,984.99
2018-03-07T08:02:27.775Z,985.02
2018-03-07T08:03:27.738Z,985.09
2018-03-07T08:04:27.702Z,985.09
2018-03-07T08:05:27.671Z,985.13
2018-03-07T08:06:27.629Z,985.14
2018-03-07T08:07:27.590Z,985.13
2018-03-07T08:08:27.554Z,985.14
2018-03-07T08:09:27.531Z,985.14
2018-03-07T08:10:27.484Z,985.17
2018-03-07T08:11:27.446Z,985.21
2018-03-07T08:12:27.407Z,985.27
2018-03-07T08:13:27.369Z,985.26
2018-03-07T08:14:28.068Z,985.13
2018-03-07T08:15:27.295Z,985.12
2018-03-07T08:16:27.247Z,985.22
2018-03-07T08:17:27.217Z,985.23
2018-03-07T08:18:27.175Z,985.28
2018-03-07T08:19:27.147Z,985.15
2018-03-07T08:20:27.104Z,985.23
2018-03-07T08:21:27.059Z,985.27
2018-03-07T08:22:27.045Z,985.24
2018-03-07T08:23:26.982Z,985.24
2018-03-07T08:24:26.943Z,985.20
2018-03-07T08:25:26.910Z,985.20
2018-03-07T08:26:26.881Z,985.22
2018-03-07T08:27:26.837Z,985.22
2018-03-07T08:28:26.794Z,985.24
2018-03-07T08:29:26.762Z,985.20
2018-03-07T08:30:26.721Z,985.26
2018-03-07T08:31:26.682Z,985.22
2018-03-07T08:32:26.645Z,985.24
2018-03-07T08:33:26.601Z,985.22
2018-03-07T08:34:26.558Z,985.22
2018-03-07T08:35:26.530Z,985.23
2018-03-07T08:36:26.492Z,985.23
2018-03-07T08:37:26.453Z,985.22
2018-03-07T08:38:26.415Z,985.23
2018-03-07T08:39:26.367Z,985.18
2018-03-07T08:40:26.337Z,985.23
2018-03-07T08:41:26.291Z,985.18
2018-03-07T08:42:26.258Z,985.27
2018-03-07T08:43:26.219Z,985.23
2018-03-07T08:44:26.180Z,985.25
2018-03-07T08:45:26.138Z,985.18
2018-03-07T08:46:26.106Z,985.20
2018-03-07T08:47:26.063Z,985.21
2018-03-07T08:48:26.020Z,985.24
2018-03-07T08:49:25.985Z,985.20
2018-03-07T08:50:25.953Z,985.20
2018-03-07T08:51:25.903Z,985.19
2018-03-07T08:52:25.866Z,985.27
2018-03-07T08:53:25.836Z,985.29
2018-03-07T08:54:25.788Z,985.30
2018-03-07T08:55:25.754Z,985.24
2018-03-07T08:56:25.714Z,985.28
2018-03-07T08:57:25.671Z,985.29
2018-03-07T08:58:25.635Z,985.29
2018-03-07T08:59:25.599Z,985.35
2018-03-07T09:00:25.562Z,985.35
2018-03-07T09:01:25.521Z,985.35
2018-03-07T09:02:25.477Z,985.40
2018-03-07T09:03:25.442Z,985.36
2018-03-07T09:04:25.402Z,985.38
2018-03-07T09:05:25.369Z,985.38
2018-03-07T09:06:25.323Z,985.41
2018-03-07T09:07:25.295Z,985.36
2018-03-07T09:08:25.245Z,985.42
2018-03-07T09:09:25.206Z,985.45
2018-03-07T09:10:25.172Z,985.44
2018-03-07T09:11:25.131Z,985.44
2018-03-07T09:12:25.093Z,985.47
2018-03-07T09:13:25.055Z,985.45
2018-03-07T09:14:25.017Z,985.45
2018-03-07T09:15:24.971Z,985.42
2018-03-07T09:16:24.941Z,985.49
2018-03-07T09:17:24.893Z,985.52
2018-03-07T09:18:24.861Z,985.58
2018-03-07T09:19:24.825Z,985.56
2018-03-07T09:20:24.783Z,985.51
2018-03-07T09:21:24.747Z,985.57
2018-03-07T09:22:24.705Z,985.59
2018-03-07T09:23:24.657Z,985.69
2018-03-07T09:24:24.625Z,985.59
2018-03-07T09:25:24.580Z,985.59
2018-03-07T09:26:24.547Z,985.63
2018-03-07T09:27:24.503Z,985.65
2018-03-07T09:28:24.477Z,985.64
2018-03-07T09:29:24.443Z,985.68
2018-03-07T09:30:24.382Z,985.64
2018-03-07T09:31:24.343Z,985.70
2018-03-07T09:32:24.317Z,985.68
2018-03-07T09:33:24.267Z,985.63
2018-03-07T09:34:24.226Z,985.72
2018-03-07T09:35:24.193Z,985.64
2018-03-07T09:36:24.146Z,985.74
2018-03-07T09:37:24.114Z,985.70
2018-03-07T09:38:24.071Z,985.62
2018-03-07T09:39:24.447Z,985.64
2018-03-07T09:40:23.993Z,985.64
2018-03-07T09:41:23.950Z,985.62
2018-03-07T09:42:23.910Z,985.74
2018-03-07T09:43:23.873Z,985.75
2018-03-07T09:44:23.834Z,985.75
2018-03-07T09:45:23.791Z,985.75
2018-03-07T09:46:23.753Z,985.81
2018-03-07T09:47:23.716Z,985.75
2018-03-07T09:48:23.672Z,985.74
2018-03-07T09:49:23.633Z,985.60
2018-03-07T09:50:23.601Z,985.73
2018-03-07T09:51:23.562Z,985.73
2018-03-07T09:52:23.516Z,985.75
2018-03-07T09:53:23.482Z,985.78
2018-03-07T09:54:23.438Z,985.80
2018-03-07T09:55:23.399Z,985.80
2018-03-07T09:56:23.394Z,985.80
2018-03-07T09:57:23.317Z,985.79
2018-03-07T09:58:23.280Z,985.88
2018-03-07T09:59:23.244Z,985.81
2018-03-07T10:00:23.206Z,985.90
2018-03-07T10:01:23.167Z,985.82
2018-03-07T10:02:23.122Z,985.88
2018-03-07T10:03:23.084Z,985.90
2018-03-07T10:04:23.052Z,985.90
2018-03-07T10:05:23.003Z,985.88
2018-03-07T10:06:22.966Z,985.88
2018-03-07T10:07:22.927Z,985.90
2018-03-07T10:08:22.896Z,985.93
2018-03-07T10:09:22.853Z,985.92
2018-03-07T10:10:22.816Z,985.89
2018-03-07T10:11:22.777Z,985.90
2018-03-07T10:12:22.733Z,985.85
2018-03-07T10:13:22.695Z,985.93
2018-03-07T10:14:22.655Z,985.98
2018-03-07T10:15:22.624Z,985.90
2018-03-07T10:16:22.579Z,986.02
2018-03-07T10:17:22.539Z,986.03
2018-03-07T10:18:22.512Z,986.09
2018-03-07T10:19:22.464Z,986.09
2018-03-07T10:20:22.434Z,986.06
2018-03-07T10:21:22.390Z,986.03
2018-03-07T10:22:22.360Z,986.05
2018-03-07T10:23:22.316Z,986.04
2018-03-07T10:24:22.282Z,986.10
2018-03-07T10:25:22.247Z,986.04
2018-03-07T10:26:22.209Z,986.06
2018-03-07T10:27:22.179Z,986.09
2018-03-07T10:28:22.137Z,986.03
2018-03-07T10:29:22.102Z,986.13
2018-03-07T10:30:22.068Z,986.08
2018-03-07T10:31:22.034Z,986.08
2018-03-07T10:32:21.998Z,986.12
2018-03-07T10:33:21.962Z,986.12
2018-03-07T10:34:21.963Z,986.12
2018-03-07T10:35:21.889Z,986.07
2018-03-07T10:36:21.861Z,986.06
2018-03-07T10:37:21.820Z,986.08
2018-03-07T10:38:21.788Z,986.03
2018-03-07T10:39:21.753Z,986.10
2018-03-07T10:40:21.719Z,986.13
2018-03-07T10:41:21.685Z,986.09
2018-03-07T10:42:21.648Z,986.12
2018-03-07T10:43:21.646Z,986.24
2018-03-07T10:44:21.577Z,986.20
2018-03-07T10:45:21.544Z,986.19
2018-03-07T10:46:21.509Z,986.17
2018-03-07T10:47:21.473Z,986.20
2018-03-07T10:48:21.437Z,986.20
2018-03-07T10:49:21.406Z,986.20
2018-03-07T10:50:21.368Z,986.17
2018-03-07T10:51:21.330Z,986.17
2018-03-07T10:52:21.296Z,986.19
2018-03-07T10:53:21.263Z,986.22
2018-03-07T10:54:21.230Z,986.16
2018-03-07T10:55:21.192Z,986.16
2018-03-07T10:56:21.178Z,986.16
2018-03-07T10:57:21.124Z,986.22
2018-03-07T10:58:21.084Z,986.21
2018-03-07T10:59:21.048Z,986.19
2018-03-07T11:00:21.012Z,986.20
2018-03-07T11:01:20.974Z,986.07
2018-03-07T11:02:20.947Z,986.14
2018-03-07T11:03:20.905Z,986.10
2018-03-07T11:04:20.869Z,986.14
2018-03-07T11:05:21.134Z,986.17
2018-03-07T11:06:20.796Z,986.11
2018-03-07T11:07:20.762Z,986.19
2018-03-07T11:08:20.725Z,986.16
2018-03-07T11:09:20.693Z,986.21
2018-03-07T11:10:20.654Z,986.14
2018-03-07T11:11:20.616Z,986.23
2018-03-07T11:12:20.578Z,986.11
2018-03-07T11:13:20.543Z,986.21
2018-03-07T11:14:20.508Z,986.19
2018-03-07T11:15:20.472Z,986.23
2018-03-07T11:16:20.434Z,986.09
2018-03-07T11:17:20.402Z,986.18
2018-03-07T11:18:20.364Z,986.22
2018-03-07T11:19:20.378Z,986.22
2018-03-07T11:20:20.292Z,986.23
2018-03-07T11:21:20.254Z,986.25
2018-03-07T11:22:20.217Z,986.27
2018-03-07T11:23:20.183Z,986.24
2018-03-07T11:24:20.143Z,986.21
2018-03-07T11:25:20.108Z,986.16
2018-03-07T11:26:20.071Z,986.27
2018-03-07T11:27:20.034Z,986.24
2018-03-07T11:28:20.010Z,986.25
2018-03-07T11:29:19.964Z,986.27
2018-03-07T11:30:19.931Z,986.28
2018-03-07T11:31:19.893Z,986.26
2018-03-07T11:32:19.856Z,986.30
2018-03-07T11:33:19.823Z,986.26
2018-03-07T11:34:19.801Z,986.32
2018-03-07T11:35:19.748Z,986.31
2018-03-07T11:36:19.715Z,986.30
2018-03-07T11:37:19.677Z,986.29
2018-03-07T11:38:19.640Z,986.30
2018-03-07T11:39:19.619Z,986.29
2018-03-07T11:40:19.569Z,986.34
2018-03-07T11:41:19.532Z,986.32
2018-03-07T11:42:19.490Z,986.33
2018-03-07T11:43:19.459Z,986.34
2018-03-07T11:44:19.421Z,986.33
2018-03-07T11:45:19.389Z,986.30
2018-03-07T11:46:19.350Z,986.33
2018-03-07T11:47:19.314Z,986.36
2018-03-07T11:48:19.280Z,986.32
2018-03-07T11:49:19.244Z,986.32
2018-03-07T11:50:19.211Z,986.36
2018-03-07T11:51:19.163Z,986.38
2018-03-07T11:52:19.141Z,986.34
2018-03-07T11:53:19.096Z,986.39
2018-03-07T11:54:19.063Z,986.35
2018-03-07T11:55:19.025Z,986.30
2018-03-07T11:56:18.989Z,986.31
2018-03-07T11:57:18.952Z,986.31
2018-03-07T11:58:18.913Z,986.33
2018-03-07T11:59:18.877Z,986.30
2018-03-07T12:00:18.844Z,986.35
2018-03-07T12:01:18.808Z,986.31
2018-03-07T12:02:18.765Z,986.32
2018-03-07T12:03:18.735Z,986.32
2018-03-07T12:04:18.717Z,986.32
2018-03-07T12:05:18.660Z,986.21
2018-03-07T12:06:18.627Z,986.30
2018-03-07T12:07:18.586Z,986.19
2018-03-07T12:08:18.551Z,986.24
2018-03-07T12:09:18.516Z,986.26
2018-03-07T12:10:18.484Z,986.25
2018-03-07T12:11:18.444Z,986.27
2018-03-07T12:12:18.409Z,986.24
2018-03-07T12:13:18.368Z,986.30
2018-03-07T12:14:18.379Z,986.20
2018-03-07T12:15:18.296Z,986.22
2018-03-07T12:16:18.262Z,986.18
2018-03-07T12:17:18.226Z,986.20
2018-03-07T12:18:18.188Z,986.14
2018-03-07T12:19:18.150Z,986.20
2018-03-07T12:20:18.118Z,986.16
2018-03-07T12:21:18.080Z,986.22
2018-03-07T12:22:18.045Z,986.16
2018-03-07T12:23:18.011Z,986.17
2018-03-07T12:24:17.970Z,986.18
2018-03-07T12:25:17.933Z,986.16
2018-03-07T12:26:17.896Z,986.16
2018-03-07T12:27:17.863Z,986.15
2018-03-07T12:28:17.824Z,986.07